sensor_id;sensor_type;location;lat;lon;timestamp;pressure;altitude;pressure_sealevel;temperature;humidity
71956;BME280;59829;50.562;6.258;2023-12-20T00:00:56;95623.00;;;9.30;85.78
71956;BME280;59829;50.562;6.258;2023-12-20T00:10:57;95624.25;;;9.36;85.79
71956;BME280;59829;50.562;6.258;2023-12-20T00:20:57;95605.09;;;9.42;85.91
71956;BME280;59829;50.562;6.258;2023-12-20T00:30:57;95618.31;;;9.47;85.91
71956;BME280;59829;50.562;6.258;2023-12-20T00:40:58;95620.50;;;9.51;85.89
71956;BME280;59829;50.562;6.258;2023-12-20T00:50:58;95627.25;;;9.52;85.89
71956;BME280;59829;50.562;6.258;2023-12-20T01:00:58;95643.41;;;9.53;86.00
71956;BME280;59829;50.562;6.258;2023-12-20T01:10:58;95665.47;;;9.54;86.00
71956;BME280;59829;50.562;6.258;2023-12-20T01:21:02;95670.84;;;9.51;85.64
71956;BME280;59829;50.562;6.258;2023-12-20T01:31:03;95704.78;;;9.30;85.05
71956;BME280;59829;50.562;6.258;2023-12-20T01:41:04;95703.03;;;9.20;84.32
71956;BME280;59829;50.562;6.258;2023-12-20T01:51:04;95707.81;;;9.13;83.72
71956;BME280;59829;50.562;6.258;2023-12-20T02:01:05;95714.09;;;9.09;83.22
71956;BME280;59829;50.562;6.258;2023-12-20T02:11:05;95721.41;;;9.02;82.51
71956;BME280;59829;50.562;6.258;2023-12-20T02:21:05;95716.31;;;9.02;82.15
71956;BME280;59829;50.562;6.258;2023-12-20T02:31:06;95707.09;;;9.00;81.74
71956;BME280;59829;50.562;6.258;2023-12-20T02:41:06;95715.13;;;8.95;81.13
71956;BME280;59829;50.562;6.258;2023-12-20T02:51:06;95697.13;;;8.97;80.99
71956;BME280;59829;50.562;6.258;2023-12-20T03:01:06;95700.38;;;8.99;80.86
71956;BME280;59829;50.562;6.258;2023-12-20T03:11:07;95711.06;;;8.93;80.32
71956;BME280;59829;50.562;6.258;2023-12-20T03:21:07;95700.84;;;8.93;80.07
71956;BME280;59829;50.562;6.258;2023-12-20T03:31:09;95702.59;;;8.92;79.94
71956;BME280;59829;50.562;6.258;2023-12-20T03:41:10;95716.41;;;8.90;79.93
71956;BME280;59829;50.562;6.258;2023-12-20T03:51:10;95701.31;;;8.87;79.69
71956;BME280;59829;50.562;6.258;2023-12-20T04:01:10;95697.00;;;8.87;79.19
71956;BME280;59829;50.562;6.258;2023-12-20T04:11:12;95697.81;;;8.88;79.33
71956;BME280;59829;50.562;6.258;2023-12-20T04:21:12;95701.31;;;8.87;79.25
71956;BME280;59829;50.562;6.258;2023-12-20T04:31:12;95731.03;;;8.88;79.27
71956;BME280;59829;50.562;6.258;2023-12-20T04:41:13;95706.41;;;8.87;79.05
71956;BME280;59829;50.562;6.258;2023-12-20T04:51:15;95709.91;;;8.86;79.09
71956;BME280;59829;50.562;6.258;2023-12-20T05:01:16;95709.91;;;8.86;79.22
71956;BME280;59829;50.562;6.258;2023-12-20T05:11:17;95709.09;;;8.85;79.21
71956;BME280;59829;50.562;6.258;2023-12-20T05:21:17;95702.94;;;8.88;79.21
71956;BME280;59829;50.562;6.258;2023-12-20T05:31:17;95712.53;;;8.84;79.07
71956;BME280;59829;50.562;6.258;2023-12-20T05:41:18;95722.88;;;8.83;79.16
71956;BME280;59829;50.562;6.258;2023-12-20T05:51:18;95718.47;;;8.85;79.09
71956;BME280;59829;50.562;6.258;2023-12-20T06:01:18;95724.50;;;8.84;79.20
71956;BME280;59829;50.562;6.258;2023-12-20T06:11:18;95750.38;;;8.79;79.04
71956;BME280;59829;50.562;6.258;2023-12-20T06:21:19;95732.50;;;8.79;79.08
71956;BME280;59829;50.562;6.258;2023-12-20T06:31:19;95744.69;;;8.75;79.02
71956;BME280;59829;50.562;6.258;2023-12-20T06:41:19;95743.06;;;8.74;78.77
71956;BME280;59829;50.562;6.258;2023-12-20T06:51:20;95738.78;;;8.75;78.91
71956;BME280;59829;50.562;6.258;2023-12-20T07:01:20;95740.50;;;8.74;78.81
71956;BME280;59829;50.562;6.258;2023-12-20T07:11:20;95745.84;;;8.71;78.44
71956;BME280;59829;50.562;6.258;2023-12-20T07:21:21;95754.31;;;8.72;78.64
71956;BME280;59829;50.562;6.258;2023-12-20T07:31:21;95747.59;;;8.71;78.49
71956;BME280;59829;50.562;6.258;2023-12-20T07:41:21;95762.28;;;8.67;78.35
71956;BME280;59829;50.562;6.258;2023-12-20T07:51:23;95760.91;;;8.63;78.36
71956;BME280;59829;50.562;6.258;2023-12-20T08:01:24;95754.41;;;8.59;78.15
71956;BME280;59829;50.562;6.258;2023-12-20T08:11:24;95768.31;;;8.55;78.24
71956;BME280;59829;50.562;6.258;2023-12-20T08:21:24;95776.09;;;8.54;78.18
71956;BME280;59829;50.562;6.258;2023-12-20T08:31:24;95761.81;;;8.51;78.08
71956;BME280;59829;50.562;6.258;2023-12-20T08:41:26;95762.00;;;8.48;78.20
71956;BME280;59829;50.562;6.258;2023-12-20T08:51:26;95747.84;;;8.44;78.23
71956;BME280;59829;50.562;6.258;2023-12-20T09:01:26;95765.72;;;8.44;78.31
71956;BME280;59829;50.562;6.258;2023-12-20T09:11:27;95770.81;;;8.44;78.12
71956;BME280;59829;50.562;6.258;2023-12-20T09:21:27;95767.56;;;8.42;78.20
71956;BME280;59829;50.562;6.258;2023-12-20T09:31:27;95775.69;;;8.47;78.38
71956;BME280;59829;50.562;6.258;2023-12-20T09:41:31;95773.84;;;8.49;78.31
71956;BME280;59829;50.562;6.258;2023-12-20T09:51:37;95762.13;;;8.46;78.46
71956;BME280;59829;50.562;6.258;2023-12-20T10:01:39;95777.31;;;8.48;78.57
71956;BME280;59829;50.562;6.258;2023-12-20T10:11:40;95779.19;;;8.46;78.52
71956;BME280;59829;50.562;6.258;2023-12-20T10:21:41;95788.56;;;8.45;78.89
71956;BME280;59829;50.562;6.258;2023-12-20T10:31:42;95761.41;;;8.44;78.77
71956;BME280;59829;50.562;6.258;2023-12-20T10:41:43;95733.44;;;8.43;78.91
71956;BME280;59829;50.562;6.258;2023-12-20T10:51:46;95720.91;;;8.40;79.02
71956;BME280;59829;50.562;6.258;2023-12-20T11:01:48;95732.63;;;8.42;79.18
71956;BME280;59829;50.562;6.258;2023-12-20T11:12:18;95728.34;;;8.43;79.17
71956;BME280;59829;50.562;6.258;2023-12-20T11:22:21;95722.44;;;8.42;79.39
71956;BME280;59829;50.562;6.258;2023-12-20T11:42:24;95713.03;;;8.43;79.60
71956;BME280;59829;50.562;6.258;2023-12-20T11:52:24;95697.72;;;8.43;79.88
71956;BME280;59829;50.562;6.258;2023-12-20T12:02:25;95700.97;;;8.45;80.10
71956;BME280;59829;50.562;6.258;2023-12-20T12:12:26;95698.19;;;8.48;80.07
71956;BME280;59829;50.562;6.258;2023-12-20T12:22:27;95665.00;;;8.48;80.28
71956;BME280;59829;50.562;6.258;2023-12-20T12:32:28;95659.69;;;8.51;80.34
71956;BME280;59829;50.562;6.258;2023-12-20T12:42:28;95647.00;;;8.50;80.39
71956;BME280;59829;50.562;6.258;2023-12-20T12:52:30;95633.22;;;8.52;80.60
71956;BME280;59829;50.562;6.258;2023-12-20T13:02:31;95638.34;;;8.52;80.65
71956;BME280;59829;50.562;6.258;2023-12-20T13:12:31;95631.63;;;8.51;80.70
71956;BME280;59829;50.562;6.258;2023-12-20T13:22:32;95633.22;;;8.52;80.67
71956;BME280;59829;50.562;6.258;2023-12-20T13:32:32;95627.19;;;8.53;80.95
71956;BME280;59829;50.562;6.258;2023-12-20T13:42:32;95597.25;;;8.55;81.20
71956;BME280;59829;50.562;6.258;2023-12-20T13:52:33;95587.97;;;8.54;81.09
71956;BME280;59829;50.562;6.258;2023-12-20T14:02:33;95570.81;;;8.56;81.31
71956;BME280;59829;50.562;6.258;2023-12-20T14:12:33;95552.00;;;8.57;81.45
71956;BME280;59829;50.562;6.258;2023-12-20T14:22:36;95542.59;;;8.58;81.65
71956;BME280;59829;50.562;6.258;2023-12-20T14:32:38;95550.13;;;8.59;81.90
71956;BME280;59829;50.562;6.258;2023-12-20T14:42:39;95541.56;;;8.60;82.16
71956;BME280;59829;50.562;6.258;2023-12-20T14:52:39;95545.72;;;8.61;82.26
71956;BME280;59829;50.562;6.258;2023-12-20T15:02:39;95542.13;;;8.64;82.53
71956;BME280;59829;50.562;6.258;2023-12-20T15:12:40;95523.19;;;8.66;82.68
71956;BME280;59829;50.562;6.258;2023-12-20T15:22:40;95534.13;;;8.68;82.78
71956;BME280;59829;50.562;6.258;2023-12-20T15:32:41;95521.25;;;8.70;83.08
71956;BME280;59829;50.562;6.258;2023-12-20T15:42:41;95532.28;;;8.70;83.06
71956;BME280;59829;50.562;6.258;2023-12-20T15:52:42;95539.69;;;8.73;83.10
71956;BME280;59829;50.562;6.258;2023-12-20T16:02:43;95534.22;;;8.78;83.45
71956;BME280;59829;50.562;6.258;2023-12-20T16:12:43;95515.97;;;8.83;83.53
71956;BME280;59829;50.562;6.258;2023-12-20T16:22:44;95531.78;;;8.88;83.77
71956;BME280;59829;50.562;6.258;2023-12-20T16:32:44;95517.97;;;8.90;83.74
71956;BME280;59829;50.562;6.258;2023-12-20T16:42:44;95527.81;;;8.95;83.87
71956;BME280;59829;50.562;6.258;2023-12-20T16:52:44;95489.94;;;9.00;84.21
71956;BME280;59829;50.562;6.258;2023-12-20T17:02:50;95496.56;;;9.02;84.19
71956;BME280;59829;50.562;6.258;2023-12-20T17:12:50;95460.69;;;9.04;84.18
71956;BME280;59829;50.562;6.258;2023-12-20T17:22:51;95481.81;;;9.06;84.11
71956;BME280;59829;50.562;6.258;2023-12-20T17:32:51;95468.78;;;9.09;84.27
71956;BME280;59829;50.562;6.258;2023-12-20T17:42:51;95441.38;;;9.11;84.48
71956;BME280;59829;50.562;6.258;2023-12-20T17:52:53;95445.53;;;9.12;84.56
71956;BME280;59829;50.562;6.258;2023-12-20T18:02:57;95445.97;;;9.17;84.63
71956;BME280;59829;50.562;6.258;2023-12-20T18:12:57;95437.38;;;9.18;84.65
71956;BME280;59829;50.562;6.258;2023-12-20T18:22:57;95436.22;;;9.22;84.66
71956;BME280;59829;50.562;6.258;2023-12-20T18:32:57;95404.63;;;9.23;84.83
71956;BME280;59829;50.562;6.258;2023-12-20T18:42:58;95406.94;;;9.26;85.00
71956;BME280;59829;50.562;6.258;2023-12-20T18:52:58;95374.38;;;9.28;85.16
71956;BME280;59829;50.562;6.258;2023-12-20T19:02:58;95385.16;;;9.32;85.06
71956;BME280;59829;50.562;6.258;2023-12-20T19:12:59;95372.25;;;9.33;85.14
71956;BME280;59829;50.562;6.258;2023-12-20T19:22:59;95361.09;;;9.34;85.33
71956;BME280;59829;50.562;6.258;2023-12-20T19:32:59;95354.22;;;9.35;85.24
71956;BME280;59829;50.562;6.258;2023-12-20T19:42:59;95344.81;;;9.35;85.40
71956;BME280;59829;50.562;6.258;2023-12-20T19:53:00;95336.13;;;9.38;85.49
71956;BME280;59829;50.562;6.258;2023-12-20T20:03:00;95319.72;;;9.41;85.53
71956;BME280;59829;50.562;6.258;2023-12-20T20:13:01;95330.34;;;9.46;85.67
71956;BME280;59829;50.562;6.258;2023-12-20T20:23:01;95289.19;;;9.49;85.53
71956;BME280;59829;50.562;6.258;2023-12-20T20:33:01;95275.47;;;9.50;85.66
71956;BME280;59829;50.562;6.258;2023-12-20T20:43:03;95258.00;;;9.55;85.77
71956;BME280;59829;50.562;6.258;2023-12-20T20:53:03;95210.78;;;9.59;85.87
71956;BME280;59829;50.562;6.258;2023-12-20T21:03:04;95214.41;;;9.66;86.21
71956;BME280;59829;50.562;6.258;2023-12-20T21:13:04;95213.06;;;9.72;86.13
71956;BME280;59829;50.562;6.258;2023-12-20T21:23:04;95213.34;;;9.68;86.03
71956;BME280;59829;50.562;6.258;2023-12-20T21:33:08;95221.97;;;9.67;86.19
71956;BME280;59829;50.562;6.258;2023-12-20T21:43:09;95195.56;;;9.67;86.27
71956;BME280;59829;50.562;6.258;2023-12-20T21:53:09;95186.97;;;9.68;86.44
71956;BME280;59829;50.562;6.258;2023-12-20T22:03:11;95164.75;;;9.68;86.59
71956;BME280;59829;50.562;6.258;2023-12-20T22:13:11;95149.28;;;9.70;86.46
71956;BME280;59829;50.562;6.258;2023-12-20T22:23:11;95146.72;;;9.70;86.87
71956;BME280;59829;50.562;6.258;2023-12-20T22:33:11;95144.03;;;9.72;87.14
71956;BME280;59829;50.562;6.258;2023-12-20T22:43:12;95163.56;;;9.73;87.11
71956;BME280;59829;50.562;6.258;2023-12-20T22:53:12;95161.13;;;9.71;87.22
71956;BME280;59829;50.562;6.258;2023-12-20T23:03:13;95138.81;;;9.73;87.72
71956;BME280;59829;50.562;6.258;2023-12-20T23:13:14;95146.22;;;9.76;87.75
